Time;durP1;ratioP1;P1;durP2;ratioP2;P2;SDS_P1;SDS_P2;PMS_P1;PMS_P2;Temp;Humidity;BMP_temperature;BMP_pressure;BME280_temperature;BME280_humidity;BME280_pressure;Samples;Min_cycle;Max_cycle;Signal;HPM_P1;HPM_P2
2022/04/06 00:00:29;;;;;;;43.17;6.20;;;18.30;72.60;;;;;;4982045;28;20198;-65
2022/04/06 00:02:55;;;;;;;43.97;6.90;;;18.70;72.70;;;;;;4968948;28;20599;-67
2022/04/06 00:05:21;;;;;;;38.33;6.60;;;18.80;72.70;;;;;;4968820;28;20691;-65
2022/04/06 00:07:48;;;;;;;43.10;7.00;;;18.80;73.00;;;;;;4972597;28;20197;-65
2022/04/06 00:10:14;;;;;;;41.47;6.53;;;18.80;74.30;;;;;;4984149;28;20201;-66
2022/04/06 00:12:41;;;;;;;48.10;7.17;;;18.80;73.70;;;;;;4987430;28;20204;-65
2022/04/06 00:15:10;;;;;;;40.37;7.07;;;18.80;75.90;;;;;;4986463;28;20189;-65
2022/04/06 00:17:39;;;;;;;42.50;7.13;;;18.80;76.40;;;;;;4987246;28;20284;-67
2022/04/06 00:20:06;;;;;;;40.03;7.23;;;18.80;74.80;;;;;;4984719;28;20193;-67
2022/04/06 00:22:33;;;;;;;37.20;7.07;;;18.90;74.80;;;;;;4984022;28;20201;-66
2022/04/06 00:24:59;;;;;;;35.17;6.30;;;18.90;75.30;;;;;;4987552;28;20193;-67
2022/04/06 00:27:26;;;;;;;35.73;6.57;;;18.80;77.90;;;;;;5002707;28;20201;-66
2022/04/06 00:29:53;;;;;;;48.03;7.60;;;18.80;79.50;;;;;;4987743;28;20190;-65
2022/04/06 00:32:20;;;;;;;54.30;9.37;;;18.70;80.90;;;;;;4987956;28;20518;-65
2022/04/06 00:37:31;;;;;;;50.43;6.77;;;18.60;82.50;;;;;;4985035;28;20181;-66
2022/04/06 00:39:57;;;;;;;32.57;7.37;;;18.50;82.40;;;;;;4979445;28;20694;-64
2022/04/06 00:42:23;;;;;;;50.77;6.70;;;18.40;82.80;;;;;;4967724;28;20257;-66
2022/04/06 00:44:49;;;;;;;43.03;7.27;;;18.30;84.30;;;;;;4974961;28;20851;-65
2022/04/06 00:47:16;;;;;;;37.80;7.10;;;18.30;83.50;;;;;;4981544;28;20216;-65
2022/04/06 00:49:42;;;;;;;36.97;7.40;;;18.10;84.60;;;;;;4986176;28;20549;-66
2022/04/06 00:52:09;;;;;;;52.63;7.20;;;18.00;84.70;;;;;;4986590;28;20554;-66
2022/04/06 00:54:37;;;;;;;39.87;6.83;;;17.90;85.60;;;;;;4987902;28;20193;-65
2022/04/06 00:57:04;;;;;;;41.37;6.57;;;17.80;85.30;;;;;;4986510;28;20650;-65
2022/04/06 00:59:31;;;;;;;42.83;6.33;;;17.80;86.80;;;;;;4987994;28;20247;-66
2022/04/06 01:01:59;;;;;;;45.80;7.47;;;17.70;86.70;;;;;;4988464;28;20530;-65
2022/04/06 01:04:26;;;;;;;43.63;6.80;;;17.60;87.40;;;;;;4984929;28;20237;-65
2022/04/06 01:06:53;;;;;;;41.90;7.57;;;17.60;86.50;;;;;;4981462;28;20190;-65
2022/04/06 01:09:21;;;;;;;48.33;7.07;;;17.50;86.50;;;;;;4983652;28;20197;-65
2022/04/06 01:11:51;;;;;;;43.47;7.37;;;17.40;86.60;;;;;;4988242;28;20197;-65
2022/04/06 01:14:19;;;;;;;36.50;6.37;;;17.40;86.90;;;;;;4987114;28;20196;-65
2022/04/06 01:17:08;;;;;;;43.33;6.50;;;17.30;85.60;;;;;;4987017;28;20248;-65
2022/04/06 01:19:40;;;;;;;50.57;6.70;;;17.40;85.50;;;;;;4987936;28;20205;-66
2022/04/06 01:22:15;;;;;;;50.37;7.77;;;17.40;83.90;;;;;;4990630;28;20185;-65
2022/04/06 01:24:44;;;;;;;63.77;7.93;;;17.60;77.10;;;;;;4987333;28;20224;-64
2022/04/06 01:27:11;;;;;;;47.27;7.30;;;18.30;72.80;;;;;;4982901;28;20932;-65
2022/04/06 01:29:40;;;;;;;64.47;7.97;;;18.70;71.50;;;;;;4980687;28;20205;-66
2022/04/06 01:32:20;;;;;;;58.53;7.30;;;19.20;69.60;;;;;;4973005;28;20270;-66
2022/04/06 01:34:49;;;;;;;60.97;7.83;;;19.80;68.30;;;;;;4985186;28;20208;-65
2022/04/06 01:37:17;;;;;;;47.17;8.10;;;20.00;68.40;;;;;;4990233;28;20209;-65
2022/04/06 01:39:46;;;;;;;64.37;8.63;;;20.30;67.00;;;;;;4991926;28;20201;-67
2022/04/06 01:42:18;;;;;;;52.10;8.53;;;20.50;66.70;;;;;;4973812;28;20204;-66
2022/04/06 01:44:47;;;;;;;46.97;7.70;;;20.60;66.30;;;;;;4984893;28;20198;-67
2022/04/06 01:47:18;;;;;;;64.13;8.47;;;20.60;65.80;;;;;;4990942;28;20189;-67
2022/04/06 01:52:33;;;;;;;49.00;9.03;;;20.40;67.30;;;;;;4991677;28;20191;-65
2022/04/06 01:55:08;;;;;;;48.70;7.90;;;20.20;69.40;;;;;;4986740;28;20194;-66
2022/04/06 01:57:35;;;;;;;46.77;8.17;;;20.10;68.20;;;;;;4973022;28;20174;-65
2022/04/06 02:00:04;;;;;;;46.77;7.70;;;20.10;68.00;;;;;;4989768;28;20232;-65
2022/04/06 02:02:31;;;;;;;43.63;9.03;;;20.10;67.30;;;;;;4989510;28;20194;-65
2022/04/06 02:04:59;;;;;;;45.83;8.23;;;20.30;66.80;;;;;;4991266;28;20228;-65
2022/04/06 02:07:26;;;;;;;47.60;7.87;;;20.20;67.70;;;;;;4982455;28;20204;-65
2022/04/06 02:09:53;;;;;;;35.77;6.87;;;20.10;68.80;;;;;;4978784;28;20196;-65
2022/04/06 02:12:23;;;;;;;44.57;7.90;;;20.00;70.80;;;;;;4990234;28;20197;-67
2022/04/06 02:14:50;;;;;;;63.03;8.13;;;19.90;70.70;;;;;;5005864;28;20673;-65
2022/04/06 02:17:16;;;;;;;58.13;8.07;;;19.90;72.80;;;;;;4990910;28;20697;-65
2022/04/06 02:19:42;;;;;;;65.50;8.23;;;19.80;75.00;;;;;;4990855;28;20212;-65
2022/04/06 02:22:09;;;;;;;54.13;9.10;;;19.70;73.00;;;;;;4990950;28;20228;-65
2022/04/06 02:24:36;;;;;;;31.60;7.07;;;19.80;69.20;;;;;;4988624;28;20249;-65
2022/04/06 02:27:07;;;;;;;41.43;7.20;;;19.90;70.40;;;;;;4975888;28;20268;-65
2022/04/06 02:29:33;;;;;;;45.97;7.90;;;19.90;72.50;;;;;;4991103;28;20191;-64
2022/04/06 02:32:00;;;;;;;45.03;7.77;;;19.90;71.20;;;;;;4991185;28;20190;-66
2022/04/06 02:34:26;;;;;;;51.50;7.80;;;19.90;72.30;;;;;;4990161;28;20201;-65
2022/04/06 02:36:52;;;;;;;41.00;8.07;;;19.80;73.90;;;;;;4988123;28;20724;-66
2022/04/06 02:39:18;;;;;;;71.87;9.03;;;19.80;71.30;;;;;;4989366;28;20259;-65
2022/04/06 02:41:45;;;;;;;47.83;6.73;;;19.80;69.80;;;;;;4989609;28;20220;-65
2022/04/06 02:44:11;;;;;;;49.90;7.67;;;19.90;70.10;;;;;;5005574;28;20307;-64
2022/04/06 02:46:37;;;;;;;49.13;8.60;;;19.90;70.60;;;;;;4956271;28;21133;-66
2022/04/06 02:49:04;;;;;;;39.60;7.03;;;19.90;71.60;;;;;;4985478;28;21967;-66
2022/04/06 02:51:31;;;;;;;41.73;8.00;;;19.90;73.10;;;;;;4990487;28;20212;-65
2022/04/06 02:53:58;;;;;;;31.43;6.73;;;19.90;69.50;;;;;;4989434;28;20190;-66
2022/04/06 02:56:24;;;;;;;51.80;8.13;;;19.90;71.40;;;;;;4988751;28;20276;-66
2022/04/06 02:58:54;;;;;;;49.83;7.43;;;19.90;71.60;;;;;;4987368;28;20197;-64
2022/04/06 03:01:21;;;;;;;44.67;7.97;;;19.80;75.20;;;;;;4988674;28;20224;-65
2022/04/06 03:03:47;;;;;;;57.83;7.60;;;19.70;73.90;;;;;;4989135;28;20219;-66
2022/04/06 03:06:14;;;;;;;53.23;8.10;;;19.70;70.60;;;;;;4982230;28;20200;-66
2022/04/06 03:08:41;;;;;;;45.97;8.77;;;19.80;70.30;;;;;;4986934;28;20659;-64
2022/04/06 03:11:07;;;;;;;48.93;8.50;;;19.80;72.30;;;;;;4991016;28;20189;-66
2022/04/06 03:13:33;;;;;;;51.23;7.87;;;19.70;75.30;;;;;;4987044;28;20181;-65
2022/04/06 03:16:00;;;;;;;45.17;7.70;;;19.70;73.40;;;;;;4988544;28;20220;-66
2022/04/06 03:18:26;;;;;;;45.77;8.13;;;19.90;68.50;;;;;;4988796;28;20209;-65
2022/04/06 03:20:53;;;;;;;52.17;8.47;;;20.10;68.50;;;;;;4990201;28;20193;-64
2022/04/06 03:23:21;;;;;;;46.93;8.60;;;20.10;68.70;;;;;;4989448;28;20217;-64
2022/04/06 03:25:48;;;;;;;47.30;7.53;;;20.10;69.80;;;;;;4988246;28;20272;-67
2022/04/06 03:28:15;;;;;;;43.50;8.30;;;20.00;69.90;;;;;;4988444;28;20200;-65
2022/04/06 03:30:42;;;;;;;49.10;7.57;;;20.10;68.20;;;;;;4989860;28;20185;-64
2022/04/06 03:33:09;;;;;;;48.80;7.30;;;20.20;68.30;;;;;;4989993;28;20212;-66
2022/04/06 03:35:36;;;;;;;54.27;8.37;;;20.20;68.60;;;;;;4988922;28;20186;-64
2022/04/06 03:38:03;;;;;;;70.00;9.63;;;20.30;67.50;;;;;;4987445;28;20212;-65
2022/04/06 03:40:29;;;;;;;49.20;7.70;;;20.40;67.50;;;;;;4980564;28;20292;-66
2022/04/06 03:42:57;;;;;;;57.60;8.20;;;20.50;67.90;;;;;;4987791;28;20213;-65
2022/04/06 03:45:24;;;;;;;53.67;8.87;;;20.40;68.10;;;;;;4986811;28;20248;-66
2022/04/06 03:47:50;;;;;;;45.37;7.07;;;20.40;69.00;;;;;;4986521;28;20713;-65
2022/04/06 03:50:17;;;;;;;50.60;8.77;;;20.30;69.80;;;;;;4987096;28;20190;-65
2022/04/06 03:52:43;;;;;;;56.97;8.33;;;20.20;74.50;;;;;;4988799;28;20621;-66
2022/04/06 03:55:10;;;;;;;47.10;8.57;;;19.90;78.50;;;;;;4987512;28;20190;-65
2022/04/06 03:57:38;;;;;;;56.70;8.40;;;19.70;79.80;;;;;;4968483;28;20190;-66
2022/04/06 04:00:08;;;;;;;51.10;8.27;;;19.40;80.80;;;;;;4968360;28;20193;-65
2022/04/06 04:02:35;;;;;;;51.67;8.30;;;19.30;81.00;;;;;;4985767;28;20940;-67
2022/04/06 04:05:03;;;;;;;41.53;7.37;;;19.20;83.10;;;;;;4989191;28;20310;-66
2022/04/06 04:07:31;;;;;;;62.20;7.80;;;19.00;82.40;;;;;;4988951;28;20193;-64
2022/04/06 04:09:58;;;;;;;60.67;8.57;;;19.00;83.20;;;;;;4988042;28;20647;-65
2022/04/06 04:12:24;;;;;;;53.57;9.50;;;19.00;82.80;;;;;;4973532;28;20793;-65
2022/04/06 04:14:51;;;;;;;44.30;8.23;;;19.00;82.90;;;;;;4986650;28;20649;-65
2022/04/06 04:17:18;;;;;;;62.73;8.20;;;19.00;83.20;;;;;;4987461;28;20209;-64
2022/04/06 04:19:45;;;;;;;61.40;10.23;;;19.00;84.50;;;;;;4988771;28;20205;-64
2022/04/06 04:22:12;;;;;;;52.80;9.07;;;18.90;84.60;;;;;;4987447;28;20201;-64
2022/04/06 04:24:38;;;;;;;43.13;7.93;;;18.90;85.30;;;;;;4987528;28;20217;-66
2022/04/06 04:27:05;;;;;;;69.77;8.27;;;18.80;85.60;;;;;;4988932;28;20182;-64
2022/04/06 04:29:31;;;;;;;45.43;8.70;;;18.90;83.70;;;;;;5003336;28;20591;-65
2022/04/06 04:31:57;;;;;;;63.73;8.40;;;18.90;82.90;;;;;;4969596;28;20355;-66
2022/04/06 04:34:24;;;;;;;55.77;8.43;;;19.00;81.20;;;;;;4989290;28;20207;-64
2022/04/06 04:36:50;;;;;;;59.37;8.87;;;19.10;81.00;;;;;;4988302;28;20201;-64
2022/04/06 04:39:18;;;;;;;53.80;9.03;;;19.20;81.40;;;;;;4988033;28;20228;-65
2022/04/06 04:41:46;;;;;;;48.53;7.87;;;19.30;80.00;;;;;;4987792;28;20202;-65
2022/04/06 04:44:13;;;;;;;62.20;8.10;;;19.30;82.90;;;;;;4988588;28;20213;-65
2022/04/06 04:46:39;;;;;;;63.33;9.07;;;19.30;83.40;;;;;;4987494;28;20652;-65
2022/04/06 04:49:06;;;;;;;50.40;8.00;;;19.30;84.80;;;;;;4987831;28;20730;-64
2022/04/06 04:51:32;;;;;;;54.10;8.83;;;19.30;84.50;;;;;;4987238;28;20332;-65
2022/04/06 04:53:59;;;;;;;54.10;7.93;;;19.30;83.90;;;;;;4988513;28;20228;-65
2022/04/06 04:56:30;;;;;;;40.83;7.43;;;19.30;83.90;;;;;;4972303;28;20259;-65
2022/04/06 04:58:57;;;;;;;58.03;9.23;;;19.30;85.80;;;;;;4987783;28;20287;-65
2022/04/06 05:01:23;;;;;;;55.37;8.60;;;19.30;88.30;;;;;;4986348;28;20248;-66
2022/04/06 05:03:50;;;;;;;53.07;8.40;;;19.30;91.40;;;;;;4988830;28;20236;-65
2022/04/06 05:06:16;;;;;;;53.50;8.57;;;19.30;91.70;;;;;;4986603;28;20981;-65
2022/04/06 05:08:42;;;;;;;53.90;8.30;;;19.20;92.20;;;;;;4986027;28;20193;-65
2022/04/06 05:11:10;;;;;;;54.63;9.03;;;19.20;93.30;;;;;;4986666;28;20193;-67
2022/04/06 05:13:36;;;;;;;55.67;8.77;;;19.30;93.60;;;;;;4983054;28;20247;-66
2022/04/06 05:16:03;;;;;;;51.10;8.93;;;19.30;94.00;;;;;;4972687;28;20333;-64
2022/04/06 05:18:30;;;;;;;43.30;7.03;;;19.30;95.30;;;;;;4967765;28;20248;-65
2022/04/06 05:20:57;;;;;;;80.83;8.40;;;19.30;94.80;;;;;;4985386;28;20293;-64
2022/04/06 05:23:23;;;;;;;53.17;9.03;;;19.40;96.00;;;;;;4968843;28;20210;-64
2022/04/06 05:25:50;;;;;;;54.03;8.67;;;19.40;93.90;;;;;;4986197;28;20201;-66
2022/04/06 05:28:18;;;;;;;62.70;9.33;;;19.50;93.60;;;;;;4988025;28;20194;-64
2022/04/06 05:30:46;;;;;;;57.57;9.37;;;19.50;93.30;;;;;;4983948;28;20232;-67
2022/04/06 05:33:13;;;;;;;56.63;8.70;;;19.50;91.60;;;;;;4981754;28;20300;-65
2022/04/06 05:35:39;;;;;;;39.87;7.10;;;19.60;92.90;;;;;;4986921;28;20197;-65
2022/04/06 05:38:06;;;;;;;39.63;7.70;;;19.50;93.20;;;;;;4986709;28;20718;-65
2022/04/06 05:40:32;;;;;;;31.97;7.03;;;19.60;92.70;;;;;;4986217;28;20235;-65
2022/04/06 05:42:59;;;;;;;44.47;8.97;;;19.60;93.70;;;;;;4982857;28;20305;-65
2022/04/06 05:45:25;;;;;;;48.33;8.00;;;19.60;93.20;;;;;;4985345;28;20224;-66
2022/04/06 05:47:51;;;;;;;50.47;7.87;;;19.60;92.70;;;;;;4987468;28;20188;-65
2022/04/06 05:50:17;;;;;;;49.87;7.97;;;19.60;91.30;;;;;;4985974;28;20936;-65
2022/04/06 05:52:44;;;;;;;49.20;8.47;;;19.60;91.50;;;;;;4980455;28;20243;-65
2022/04/06 05:55:10;;;;;;;52.50;7.87;;;19.60;91.30;;;;;;4984852;28;20521;-64
2022/04/06 05:57:38;;;;;;;43.27;7.70;;;19.60;90.90;;;;;;4981730;28;20638;-65
2022/04/06 06:00:07;;;;;;;47.97;7.67;;;19.60;91.10;;;;;;4983671;28;20280;-67
2022/04/06 06:02:35;;;;;;;61.03;8.37;;;19.60;91.30;;;;;;4983617;28;20201;-66
2022/04/06 06:05:02;;;;;;;40.30;7.30;;;19.70;91.00;;;;;;4994144;28;22328;-65
2022/04/06 06:07:29;;;;;;;45.20;8.00;;;19.70;91.10;;;;;;4968912;28;20190;-65
2022/04/06 06:09:56;;;;;;;46.73;7.47;;;19.70;90.70;;;;;;4984841;28;20198;-65
2022/04/06 06:12:25;;;;;;;53.07;7.00;;;19.70;90.80;;;;;;4987872;28;20531;-66
2022/04/06 06:14:51;;;;;;;54.87;8.63;;;19.80;91.60;;;;;;4983270;28;20645;-65
2022/04/06 06:17:18;;;;;;;56.17;7.60;;;19.80;91.60;;;;;;4976520;28;20218;-65
2022/04/06 06:19:44;;;;;;;61.87;7.90;;;19.80;91.80;;;;;;4977701;28;20213;-67
2022/04/06 06:22:10;;;;;;;51.17;8.33;;;19.80;91.80;;;;;;4986510;28;20240;-66
2022/04/06 06:24:37;;;;;;;72.60;8.60;;;19.80;92.10;;;;;;4985526;28;20221;-67
2022/04/06 06:27:04;;;;;;;47.90;8.47;;;19.80;92.10;;;;;;4988037;28;20591;-65
2022/04/06 06:29:32;;;;;;;55.00;8.63;;;19.80;91.90;;;;;;4987104;28;20256;-66
2022/04/06 06:31:59;;;;;;;61.57;7.90;;;19.80;92.20;;;;;;4986115;28;20816;-64
2022/04/06 06:34:25;;;;;;;49.30;7.90;;;19.80;91.80;;;;;;4983175;28;20197;-65
2022/04/06 06:36:52;;;;;;;54.33;8.43;;;19.80;92.60;;;;;;4986944;28;20190;-64
2022/04/06 06:39:18;;;;;;;57.40;8.80;;;19.80;92.40;;;;;;4986534;28;20198;-64
2022/04/06 06:41:45;;;;;;;58.60;9.07;;;19.80;92.40;;;;;;4988023;28;20198;-66
2022/04/06 06:44:11;;;;;;;60.77;8.17;;;19.80;92.50;;;;;;4987544;28;20275;-67
2022/04/06 06:46:38;;;;;;;57.00;9.13;;;19.90;92.60;;;;;;4988330;28;20217;-65
2022/04/06 06:49:04;;;;;;;57.43;9.03;;;19.90;92.90;;;;;;4987570;28;20228;-64
2022/04/06 06:51:32;;;;;;;52.53;8.37;;;20.00;93.00;;;;;;5005093;28;20248;-66
2022/04/06 06:54:01;;;;;;;59.60;8.10;;;20.00;93.40;;;;;;4987452;28;20197;-65
2022/04/06 06:56:27;;;;;;;54.97;8.03;;;20.00;92.50;;;;;;4976637;28;20221;-65
2022/04/06 06:58:54;;;;;;;55.10;9.37;;;20.10;93.10;;;;;;4983653;28;20235;-67
2022/04/06 07:01:21;;;;;;;63.50;8.37;;;20.10;92.70;;;;;;4987739;28;20194;-66
2022/04/06 07:03:47;;;;;;;56.23;8.33;;;20.10;92.50;;;;;;4984877;28;20221;-65
2022/04/06 07:06:15;;;;;;;77.43;9.03;;;20.20;93.70;;;;;;4985395;28;20562;-66
2022/04/06 07:08:41;;;;;;;51.73;8.03;;;20.30;93.10;;;;;;4987032;28;20190;-65
2022/04/06 07:11:08;;;;;;;62.23;8.17;;;20.30;93.70;;;;;;5000382;28;20193;-66
2022/04/06 07:13:34;;;;;;;53.50;8.40;;;20.40;94.10;;;;;;4985288;28;20197;-66
2022/04/06 07:16:02;;;;;;;58.97;9.03;;;20.40;95.20;;;;;;4985706;28;20264;-65
2022/04/06 07:18:29;;;;;;;63.93;9.63;;;20.50;95.60;;;;;;4987909;28;20638;-66
2022/04/06 07:20:56;;;;;;;58.43;9.40;;;20.50;95.10;;;;;;4988612;28;20193;-65
2022/04/06 07:23:22;;;;;;;58.17;8.63;;;20.50;94.80;;;;;;4985498;28;20255;-66
2022/04/06 07:25:48;;;;;;;65.83;9.93;;;20.50;95.00;;;;;;4986880;28;20196;-66
2022/04/06 07:28:15;;;;;;;48.30;8.70;;;20.60;94.90;;;;;;5001313;28;20221;-66
2022/04/06 07:30:41;;;;;;;62.17;9.43;;;20.60;95.20;;;;;;4983494;28;20201;-66
2022/04/06 07:33:09;;;;;;;53.93;9.00;;;20.60;95.50;;;;;;4981452;28;20276;-66
2022/04/06 07:35:37;;;;;;;68.87;10.17;;;20.60;98.10;;;;;;4988415;28;20194;-66
2022/04/06 07:38:03;;;;;;;72.13;11.00;;;20.60;99.90;;;;;;4986482;28;20858;-66
2022/04/06 07:40:35;;;;;;;72.00;10.73;;;20.60;99.90;;;;;;4996681;28;20259;-65
2022/04/06 07:43:02;;;;;;;66.13;9.80;;;20.50;99.90;;;;;;4983798;28;20205;-65
2022/04/06 07:45:29;;;;;;;69.00;10.53;;;20.50;99.90;;;;;;4982256;28;20204;-66
2022/04/06 07:47:55;;;;;;;71.10;10.33;;;20.50;99.90;;;;;;4984873;28;20193;-66
2022/04/06 07:50:22;;;;;;;82.40;10.63;;;20.50;99.90;;;;;;4983765;28;20255;-65
2022/04/06 07:52:50;;;;;;;82.33;10.03;;;20.50;99.90;;;;;;4982294;28;20206;-65
2022/04/06 07:55:17;;;;;;;78.43;11.40;;;20.50;99.90;;;;;;4985933;28;20189;-66
2022/04/06 07:57:44;;;;;;;58.20;11.20;;;20.50;99.90;;;;;;5003647;28;20205;-66
2022/04/06 08:00:16;;;;;;;64.03;10.13;;;20.50;99.90;;;;;;4984069;28;20210;-67
2022/04/06 08:02:47;;;;;;;70.67;11.20;;;20.50;99.90;;;;;;5001439;28;20224;-67
2022/04/06 08:05:15;;;;;;;70.43;10.30;;;20.50;99.90;;;;;;4961497;28;20641;-66
2022/04/06 08:07:45;;;;;;;63.40;10.13;;;20.50;99.90;;;;;;4989293;28;20227;-66
2022/04/06 08:10:18;;;;;;;79.17;11.63;;;20.50;99.90;;;;;;4989932;28;20229;-66
2022/04/06 08:12:45;;;;;;;60.13;9.67;;;20.50;99.90;;;;;;4980361;28;20198;-67
2022/04/06 08:15:14;;;;;;;58.13;9.67;;;20.30;99.90;;;;;;4965564;28;20193;-65
2022/04/06 08:17:47;;;;;;;72.73;9.87;;;20.30;99.90;;;;;;4983986;28;20220;-65
2022/04/06 08:20:17;;;;;;;67.43;10.60;;;20.30;99.90;;;;;;4982681;28;20209;-65
2022/04/06 08:22:46;;;;;;;82.67;11.40;;;20.20;99.90;;;;;;4986943;28;20316;-66
2022/04/06 08:25:17;;;;;;;76.27;13.47;;;20.20;99.90;;;;;;4983853;28;20205;-65
2022/04/06 08:27:44;;;;;;;60.23;11.80;;;20.20;99.90;;;;;;4979628;28;20224;-67
2022/04/06 08:30:12;;;;;;;89.00;11.47;;;20.20;99.90;;;;;;4982362;28;20914;-66
2022/04/06 08:32:39;;;;;;;81.73;11.67;;;20.20;99.90;;;;;;4988773;28;20593;-65
2022/04/06 08:35:08;;;;;;;74.53;11.63;;;20.20;99.90;;;;;;4985850;28;20380;-66
2022/04/06 08:37:38;;;;;;;86.60;13.30;;;20.20;99.90;;;;;;4986279;28;20806;-65
2022/04/06 08:40:08;;;;;;;57.47;11.57;;;20.20;99.90;;;;;;4987842;28;20259;-64
2022/04/06 08:42:36;;;;;;;70.83;11.60;;;20.20;99.90;;;;;;4989842;28;20674;-66
2022/04/06 08:45:04;;;;;;;82.03;11.53;;;20.20;99.90;;;;;;4986268;28;20220;-65
2022/04/06 08:47:37;;;;;;;64.80;12.60;;;20.20;99.90;;;;;;4981965;28;20228;-65
2022/04/06 08:50:07;;;;;;;73.33;10.50;;;20.20;99.90;;;;;;4982951;28;20205;-66
2022/04/06 08:52:35;;;;;;;86.30;11.70;;;20.20;99.90;;;;;;4984453;28;20193;-65
2022/04/06 08:55:02;;;;;;;71.93;11.13;;;20.30;99.90;;;;;;4982872;28;20280;-66
2022/04/06 08:57:28;;;;;;;62.87;11.67;;;20.30;99.90;;;;;;4988475;28;20196;-66
2022/04/06 08:59:55;;;;;;;82.87;13.07;;;20.20;99.90;;;;;;4987314;28;20324;-66
2022/04/06 09:02:23;;;;;;;92.53;12.30;;;20.30;99.90;;;;;;4981879;28;20650;-64
2022/04/06 09:04:54;;;;;;;93.63;12.83;;;20.40;99.90;;;;;;4995526;28;20213;-65
2022/04/06 09:07:23;;;;;;;88.40;13.07;;;20.40;99.90;;;;;;4984320;28;20189;-64
2022/04/06 09:09:56;;;;;;;87.53;13.40;;;20.50;99.90;;;;;;4982812;28;20653;-66
2022/04/06 09:12:25;;;;;;;91.33;13.10;;;20.50;99.90;;;;;;4979344;28;20181;-64
2022/04/06 09:15:13;;;;;;;71.57;12.47;;;20.60;99.90;;;;;;4984884;28;20272;-65
2022/04/06 09:17:50;;;;;;;93.83;13.50;;;20.60;99.90;;;;;;4982667;28;20225;-66
2022/04/06 09:20:24;;;;;;;68.30;11.70;;;20.60;99.90;;;;;;4979679;28;20260;-65
2022/04/06 09:22:51;;;;;;;94.17;13.40;;;20.70;99.90;;;;;;4986402;28;20189;-65
2022/04/06 09:25:20;;;;;;;93.50;12.37;;;20.80;99.90;;;;;;4985807;28;20209;-65
2022/04/06 09:27:47;;;;;;;85.30;12.50;;;20.90;99.90;;;;;;4980287;28;20185;-64
2022/04/06 09:30:14;;;;;;;99.40;13.93;;;20.90;99.90;;;;;;4982741;28;20192;-64
2022/04/06 09:32:42;;;;;;;87.83;12.67;;;21.00;99.90;;;;;;4982065;28;20201;-65
2022/04/06 09:35:26;;;;;;;88.97;13.90;;;21.10;99.90;;;;;;4983345;28;20190;-66
2022/04/06 09:38:22;;;;;;;85.33;11.87;;;21.10;99.90;;;;;;4980455;28;20380;-64
2022/04/06 09:40:59;;;;;;;85.17;12.77;;;21.20;99.90;;;;;;4978637;28;20292;-65
2022/04/06 09:43:32;;;;;;;92.13;12.70;;;21.40;99.90;;;;;;4985916;28;20306;-65
2022/04/06 09:49:25;;;;;;;63.73;10.60;;;21.80;99.90;;;;;;4943978;29;20581;-65
2022/04/06 09:51:52;;;;;;;110.17;12.10;;;22.10;99.90;;;;;;4944147;29;20203;-66
2022/04/06 09:54:19;;;;;;;84.13;12.87;;;22.20;99.90;;;;;;4978905;28;20281;-65
2022/04/06 09:56:46;;;;;;;91.00;12.73;;;22.40;99.90;;;;;;4987495;28;20197;-66
2022/04/06 09:59:15;;;;;;;72.13;11.87;;;22.80;99.90;;;;;;4986814;28;20196;-65
2022/04/06 10:01:52;;;;;;;83.37;13.00;;;22.80;99.90;;;;;;4987280;28;20285;-65
2022/04/06 10:04:24;;;;;;;78.47;11.47;;;23.10;99.90;;;;;;4984776;28;20399;-65
2022/04/06 10:06:50;;;;;;;84.87;12.73;;;23.40;99.90;;;;;;4979739;28;20217;-65
2022/04/06 10:09:17;;;;;;;80.57;12.63;;;23.60;99.90;;;;;;4980386;28;21607;-66
2022/04/06 10:11:43;;;;;;;80.70;12.05;;;23.80;99.90;;;;;;4983013;28;20201;-67
2022/04/06 10:14:11;;;;;;;80.47;11.75;;;24.60;99.90;;;;;;4983219;28;20217;-66
2022/04/06 10:16:39;;;;;;;75.68;12.18;;;26.90;99.60;;;;;;5005674;28;20228;-65
2022/04/06 10:19:11;;;;;;;81.78;11.00;;;28.60;98.50;;;;;;4989192;28;20216;-66
2022/04/06 10:21:53;;;;;;;80.97;11.70;;;29.30;98.20;;;;;;4985286;28;20193;-65
2022/04/06 10:24:53;;;;;;;80.38;11.85;;;27.60;97.50;;;;;;4985720;28;20229;-66
2022/04/06 10:27:28;;;;;;;80.43;12.20;;;25.80;98.70;;;;;;4983730;28;20566;-65
2022/04/06 10:30:17;;;;;;;79.05;12.25;;;24.90;99.30;;;;;;4982881;28;20193;-66
2022/04/06 10:32:48;;;;;;;68.05;10.68;;;24.30;99.90;;;;;;4981199;28;20201;-66
2022/04/06 10:35:24;;;;;;;78.40;11.15;;;24.00;99.90;;;;;;4985918;28;20204;-66
2022/04/06 10:38:14;;;;;;;63.83;11.40;;;23.90;99.90;;;;;;4984265;28;20201;-66
2022/04/06 10:40:44;;;;;;;66.33;10.83;;;23.80;99.90;;;;;;4981469;28;20233;-65
2022/04/06 10:43:39;;;;;;;82.15;11.65;;;23.60;99.90;;;;;;4981708;28;20705;-66
2022/04/06 10:46:14;;;;;;;88.10;11.38;;;23.60;99.90;;;;;;4983873;28;20260;-65
2022/04/06 10:49:15;;;;;;;53.25;9.60;;;23.50;99.90;;;;;;4971434;28;20269;-67
2022/04/06 10:51:50;;;;;;;72.13;11.93;;;23.60;99.90;;;;;;4967894;28;20680;-65
2022/04/06 10:54:16;;;;;;;84.43;11.63;;;23.50;99.90;;;;;;4988522;28;20197;-65
2022/04/06 10:56:55;;;;;;;63.90;10.87;;;23.30;98.00;;;;;;4971597;28;20189;-64
2022/04/06 10:59:28;;;;;;;69.50;11.37;;;23.20;99.10;;;;;;4990405;28;20277;-64
2022/04/06 11:02:19;;;;;;;75.90;12.20;;;23.20;99.90;;;;;;4983313;28;20197;-64
2022/04/06 11:04:48;;;;;;;73.03;11.47;;;23.20;99.90;;;;;;4972184;28;20253;-64
2022/04/06 11:10:29;;;;;;;71.07;11.70;;;22.80;99.90;;;;;;4990713;28;20723;-65
2022/04/06 11:13:03;;;;;;;69.67;10.73;;;22.60;99.90;;;;;;4990675;28;20187;-65
2022/04/06 11:15:40;;;;;;;64.47;10.37;;;22.60;99.90;;;;;;4989922;28;20216;-65
2022/04/06 11:18:48;;;;;;;79.40;11.70;;;22.40;99.90;;;;;;4988619;28;20201;-65
2022/04/06 11:21:18;;;;;;;78.43;11.70;;;22.30;99.90;;;;;;4977157;28;20186;-64
2022/04/06 11:23:44;;;;;;;67.40;10.83;;;22.30;99.90;;;;;;4972007;28;20260;-64
2022/04/06 11:26:11;;;;;;;71.80;11.10;;;22.20;99.90;;;;;;4971340;28;20179;-65
2022/04/06 11:28:37;;;;;;;83.27;12.73;;;22.20;99.90;;;;;;4983086;28;20189;-65
2022/04/06 11:31:05;;;;;;;81.63;11.40;;;22.10;99.90;;;;;;4990176;28;20204;-65
2022/04/06 11:33:44;;;;;;;83.63;12.13;;;22.10;99.90;;;;;;4989887;28;20646;-63
2022/04/06 11:36:17;;;;;;;72.20;11.33;;;22.00;99.90;;;;;;4990148;28;20664;-64
2022/04/06 11:38:51;;;;;;;75.47;11.20;;;22.00;99.90;;;;;;4989132;28;20213;-64
2022/04/06 11:41:20;;;;;;;79.40;11.30;;;22.00;99.90;;;;;;4986523;28;20653;-64
2022/04/06 11:43:51;;;;;;;79.00;12.90;;;22.00;99.90;;;;;;4989496;28;20708;-64
2022/04/06 11:46:17;;;;;;;70.17;11.87;;;22.00;99.90;;;;;;4972739;28;20244;-64
2022/04/06 11:48:45;;;;;;;82.77;10.93;;;22.00;99.90;;;;;;4989288;28;20217;-64
2022/04/06 11:51:12;;;;;;;80.17;12.43;;;22.10;99.90;;;;;;4988324;28;20185;-65
2022/04/06 11:53:39;;;;;;;75.63;11.67;;;22.00;99.90;;;;;;4988518;28;20203;-64
2022/04/06 11:56:05;;;;;;;77.40;10.47;;;22.00;99.90;;;;;;4989720;28;20193;-65
2022/04/06 11:58:40;;;;;;;90.63;11.50;;;22.00;99.90;;;;;;4988074;28;20185;-63
2022/04/06 12:01:17;;;;;;;64.47;11.03;;;21.90;99.90;;;;;;4988895;28;20192;-64
2022/04/06 12:03:46;;;;;;;89.13;12.63;;;21.90;99.90;;;;;;4988805;28;20220;-65
2022/04/06 12:06:15;;;;;;;60.50;9.93;;;21.80;99.90;;;;;;4989246;28;20221;-64
2022/04/06 12:08:45;;;;;;;78.03;12.00;;;21.70;99.90;;;;;;4969558;28;20643;-65
2022/04/06 12:11:12;;;;;;;76.77;12.13;;;21.70;99.90;;;;;;4970644;28;20205;-67
2022/04/06 12:13:42;;;;;;;81.67;12.67;;;21.70;99.90;;;;;;4970489;28;20249;-64
2022/04/06 12:16:09;;;;;;;96.53;12.87;;;21.60;99.90;;;;;;4970665;28;20201;-65
2022/04/06 12:18:40;;;;;;;71.50;10.97;;;21.60;99.90;;;;;;4987899;28;20209;-65
2022/04/06 12:21:29;;;;;;;69.73;11.77;;;21.60;99.90;;;;;;4970899;28;20194;-65
2022/04/06 12:23:56;;;;;;;73.83;12.57;;;21.50;99.90;;;;;;4996270;28;20210;-66
2022/04/06 12:26:25;;;;;;;85.87;11.43;;;21.50;99.90;;;;;;4981221;28;20642;-64
2022/04/06 12:29:00;;;;;;;98.80;12.70;;;21.40;99.90;;;;;;4986766;28;20321;-65
2022/04/06 12:31:42;;;;;;;77.20;11.57;;;21.40;99.90;;;;;;4990132;28;20185;-65
2022/04/06 12:34:44;;;;;;;76.23;12.13;;;21.30;99.90;;;;;;4989426;28;20247;-64
2022/04/06 12:39:57;;;;;;;83.77;11.40;;;21.30;99.90;;;;;;4973130;28;20193;-65
2022/04/06 12:42:25;;;;;;;74.50;12.30;;;21.30;99.90;;;;;;4971646;28;20740;-64
2022/04/06 12:45:02;;;;;;;71.87;12.17;;;21.30;99.90;;;;;;4988813;28;20299;-64
2022/04/06 12:47:28;;;;;;;92.07;11.50;;;21.20;99.90;;;;;;4988855;28;20573;-64
2022/04/06 12:50:21;;;;;;;78.13;11.00;;;21.20;99.90;;;;;;4987878;28;20219;-64
2022/04/06 12:53:10;;;;;;;69.63;12.27;;;21.20;99.90;;;;;;4988707;28;20233;-63
2022/04/06 12:55:37;;;;;;;84.63;12.40;;;21.20;99.90;;;;;;4989311;28;20193;-63
2022/04/06 12:58:23;;;;;;;81.37;11.57;;;21.20;99.90;;;;;;4987952;28;20338;-65